Time;durP1;ratioP1;P1;durP2;ratioP2;P2;SDS_P1;SDS_P2;PMS_P1;PMS_P2;Temp;Humidity;BMP_temperature;BMP_pressure;BME280_temperature;BME280_humidity;BME280_pressure;Samples;Min_cycle;Max_cycle;Signal;HPM_P1;HPM_P2
2022/08/21 00:00:09;;;;;;;13.50;6.65;;;;;;;19.92;57.65;100502.34;5033334;28;20067;-75
2022/08/21 00:02:45;;;;;;;9.80;6.70;;;;;;;19.97;57.66;100500.88;5032659;28;20132;-75
2022/08/21 00:05:11;;;;;;;14.93;6.80;;;;;;;19.86;57.54;100493.81;5016210;28;20052;-76
2022/08/21 00:07:37;;;;;;;12.02;6.68;;;;;;;19.92;57.73;100508.63;5032179;28;20041;-76
2022/08/21 00:10:04;;;;;;;11.65;6.57;;;;;;;19.89;57.75;100498.91;5033078;28;20045;-75
2022/08/21 00:12:31;;;;;;;7.35;6.55;;;;;;;19.80;57.65;100488.16;5032209;28;20390;-75
2022/08/21 00:14:57;;;;;;;8.75;6.53;;;;;;;19.85;58.01;100493.97;5033188;28;20045;-75
2022/08/21 00:17:23;;;;;;;14.50;7.00;;;;;;;19.86;57.66;100498.41;5032409;28;20095;-75
2022/08/21 00:19:49;;;;;;;9.80;6.45;;;;;;;19.85;57.64;100488.53;5033035;28;20038;-75
2022/08/21 00:22:15;;;;;;;12.52;6.65;;;;;;;19.93;57.54;100504.88;5033155;28;20413;-75
2022/08/21 00:24:40;;;;;;;12.07;7.05;;;;;;;19.80;57.92;100482.72;5031663;28;20583;-75
2022/08/21 00:27:07;;;;;;;10.82;7.03;;;;;;;19.73;57.85;100495.19;5015542;28;20041;-76
2022/08/21 00:29:33;;;;;;;12.73;7.75;;;;;;;19.72;58.17;100499.78;5015234;28;20045;-76
2022/08/21 00:31:59;;;;;;;11.52;6.75;;;;;;;19.65;58.54;100495.97;5033208;28;20047;-76
2022/08/21 00:34:26;;;;;;;11.32;6.65;;;;;;;19.72;58.38;100496.22;5015646;28;20045;-76
2022/08/21 00:36:51;;;;;;;17.50;7.15;;;;;;;19.64;58.50;100492.41;5031911;28;20041;-77
2022/08/21 00:39:18;;;;;;;13.40;6.47;;;;;;;19.58;58.32;100490.25;5031972;28;20132;-77
2022/08/21 00:41:43;;;;;;;7.40;6.57;;;;;;;19.67;58.57;100498.50;5031642;28;20549;-77
2022/08/21 00:44:12;;;;;;;10.48;7.20;;;;;;;19.61;58.54;100497.25;5032926;28;20597;-77
2022/08/21 00:46:39;;;;;;;;;;;;;;;19.64;58.38;100505.13;5015266;28;20066;-77
2022/08/21 00:49:07;;;;;;;10.25;6.82;;;;;;;19.56;58.92;100497.72;5031501;28;19920;-76
2022/08/21 00:51:47;;;;;;;9.05;6.60;;;;;;;19.57;58.84;100499.41;5015225;28;20041;-77
2022/08/21 00:54:14;;;;;;;11.13;6.78;;;;;;;19.57;58.50;100494.00;5032165;28;20105;-76
2022/08/21 00:56:41;;;;;;;10.40;6.53;;;;;;;19.58;58.80;100509.25;5015262;28;20048;-77
2022/08/21 00:59:07;;;;;;;11.55;6.95;;;;;;;19.52;58.71;100499.03;5015079;28;20049;-76
2022/08/21 01:01:33;;;;;;;7.68;6.32;;;;;;;19.54;58.79;100515.97;5031259;28;20045;-76
2022/08/21 01:03:59;;;;;;;13.63;7.13;;;;;;;19.49;58.75;100506.63;5015178;28;20045;-76
2022/08/21 01:06:25;;;;;;;8.43;6.88;;;;;;;19.48;59.04;100523.88;4998926;28;20428;-75
2022/08/21 01:08:51;;;;;;;8.40;7.10;;;;;;;19.41;59.06;100510.09;5032084;28;20152;-75
2022/08/21 01:11:18;;;;;;;11.90;6.80;;;;;;;19.46;58.94;100521.31;5031181;28;20053;-76
2022/08/21 01:13:46;;;;;;;9.52;6.47;;;;;;;19.44;59.18;100514.34;4998992;28;20048;-75
2022/08/21 01:16:16;;;;;;;10.40;6.97;;;;;;;19.39;59.25;100512.09;5015302;28;20440;-76
2022/08/21 01:18:44;;;;;;;9.95;6.78;;;;;;;19.44;59.34;100520.59;5014851;28;20108;-76
2022/08/21 01:21:25;;;;;;;17.98;6.72;;;;;;;19.44;59.09;100520.59;5014852;28;20408;-75
2022/08/21 01:23:53;;;;;;;10.52;6.75;;;;;;;19.41;58.94;100520.94;5014943;28;20045;-76
2022/08/21 01:26:23;;;;;;;10.82;7.32;;;;;;;19.44;59.16;100520.59;5031252;28;20052;-75
2022/08/21 01:29:00;;;;;;;11.57;6.90;;;;;;;19.40;59.36;100535.47;5014594;28;20037;-75
2022/08/21 01:31:28;;;;;;;8.43;6.95;;;;;;;19.33;59.19;100524.41;5014693;28;20091;-76
2022/08/21 01:33:55;;;;;;;12.77;7.07;;;;;;;19.29;59.15;100528.38;5015218;28;20144;-76
2022/08/21 01:36:22;;;;;;;9.27;7.40;;;;;;;19.41;59.19;100542.63;5035047;28;20104;-76
2022/08/21 01:38:48;;;;;;;11.70;7.05;;;;;;;19.37;59.10;100536.66;5018481;28;20140;-76
2022/08/21 01:41:15;;;;;;;10.30;7.05;;;;;;;19.33;59.26;100542.50;5036045;28;20489;-76
2022/08/21 01:43:42;;;;;;;14.80;6.88;;;;;;;19.34;59.00;100533.38;5034901;28;20535;-76
2022/08/21 01:46:09;;;;;;;11.48;7.00;;;;;;;19.38;59.13;100546.47;5001837;28;20041;-76
2022/08/21 01:48:35;;;;;;;21.33;7.63;;;;;;;19.32;59.51;100549.78;5035501;28;20053;-76
2022/08/21 01:51:01;;;;;;;8.50;6.95;;;;;;;19.25;59.05;100537.81;5034792;28;20494;-76
2022/08/21 01:53:27;;;;;;;16.15;7.68;;;;;;;19.28;59.46;100550.25;5034450;28;20049;-76
2022/08/21 01:55:53;;;;;;;12.60;6.88;;;;;;;19.22;59.67;100548.09;5018473;28;20041;-76
2022/08/21 01:58:19;;;;;;;10.10;7.18;;;;;;;19.15;59.41;100540.59;5017994;28;20053;-75
2022/08/21 02:00:45;;;;;;;18.90;7.55;;;;;;;19.17;59.62;100543.13;5018052;28;20084;-76
2022/08/21 02:03:11;;;;;;;13.02;7.97;;;;;;;19.22;59.88;100553.53;5018116;28;20045;-75
2022/08/21 02:05:37;;;;;;;18.85;7.90;;;;;;;19.18;59.90;100555.69;5018018;28;20485;-75
2022/08/21 02:08:03;;;;;;;11.73;6.88;;;;;;;19.27;59.42;100559.38;5034294;28;20099;-75
2022/08/21 02:10:31;;;;;;;16.73;8.10;;;;;;;19.36;59.22;100563.88;5034227;28;20073;-75
2022/08/21 02:13:00;;;;;;;12.90;7.40;;;;;;;19.24;59.30;100551.53;5035527;28;20052;-76
2022/08/21 02:15:27;;;;;;;15.27;7.10;;;;;;;19.29;59.17;100563.63;5034160;28;20045;-76
2022/08/21 02:17:57;;;;;;;11.00;7.65;;;;;;;19.21;59.28;100555.41;5034019;28;20493;-76
2022/08/21 02:20:47;;;;;;;11.30;7.50;;;;;;;19.33;59.64;100566.91;5017689;28;20048;-76
2022/08/21 02:23:14;;;;;;;21.58;7.70;;;;;;;19.25;59.33;100564.09;5017502;28;20083;-75
2022/08/21 02:25:41;;;;;;;10.88;7.57;;;;;;;19.28;59.55;100559.22;5017590;28;20045;-76
2022/08/21 02:28:11;;;;;;;13.63;7.28;;;;;;;19.38;59.06;100567.31;5034072;28;20517;-76
2022/08/21 02:30:41;;;;;;;12.77;7.43;;;;;;;19.29;59.61;100550.06;5017466;28;20139;-77
2022/08/21 02:33:09;;;;;;;13.52;8.05;;;;;;;19.47;58.86;100566.41;5035156;28;20064;-76
2022/08/21 02:35:36;;;;;;;10.45;7.57;;;;;;;19.58;58.97;100571.63;5001070;28;20037;-75
2022/08/21 02:38:09;;;;;;;14.70;7.63;;;;;;;19.50;58.75;100557.97;5033860;28;20033;-75
2022/08/21 02:40:37;;;;;;;14.20;7.18;;;;;;;19.63;58.60;100569.38;5033828;28;20049;-76
2022/08/21 02:43:05;;;;;;;14.20;7.60;;;;;;;19.64;58.28;100573.78;5035065;28;20049;-76
2022/08/21 02:45:32;;;;;;;13.32;7.82;;;;;;;19.61;58.14;100565.91;5000856;28;20311;-75
2022/08/21 02:48:02;;;;;;;10.52;7.30;;;;;;;19.63;58.47;100574.78;5000439;28;20041;-76
2022/08/21 02:50:38;;;;;;;12.73;7.50;;;;;;;19.73;58.26;100576.59;5017010;28;20041;-75
2022/08/21 02:53:06;;;;;;;21.58;8.25;;;;;;;19.81;58.13;100568.53;5033293;28;20128;-75
2022/08/21 02:55:36;;;;;;;14.77;8.18;;;;;;;19.79;58.19;100560.56;5001493;28;20068;-76
2022/08/21 02:58:04;;;;;;;14.10;8.00;;;;;;;19.77;58.39;100557.13;5033702;28;20049;-76
2022/08/21 03:00:31;;;;;;;16.33;8.50;;;;;;;19.88;57.90;100567.78;5033566;28;20107;-77
2022/08/21 03:02:58;;;;;;;14.40;8.57;;;;;;;20.01;57.76;100570.13;5016697;28;20511;-76
2022/08/21 03:05:26;;;;;;;11.68;8.32;;;;;;;20.15;57.72;100568.72;5016829;28;20497;-76
2022/08/21 03:07:52;;;;;;;13.18;8.90;;;;;;;20.22;57.56;100574.41;5016772;28;20085;-75
2022/08/21 03:10:20;;;;;;;14.57;8.88;;;;;;;20.30;57.56;100567.16;5016592;28;20037;-75
2022/08/21 03:12:47;;;;;;;14.25;8.52;;;;;;;20.40;56.98;100564.38;5033023;28;20452;-76
2022/08/21 03:15:17;;;;;;;17.48;8.82;;;;;;;20.44;57.08;100568.50;5032887;28;20588;-76
2022/08/21 03:17:43;;;;;;;12.63;9.50;;;;;;;20.46;57.16;100574.63;5016436;28;20045;-76
2022/08/21 03:20:10;;;;;;;14.48;9.07;;;;;;;20.39;57.28;100562.69;5016441;28;20042;-76
2022/08/21 03:22:36;;;;;;;13.70;9.48;;;;;;;20.54;57.08;100572.00;5033127;28;20043;-76
2022/08/21 03:25:03;;;;;;;11.82;9.05;;;;;;;20.66;56.71;100569.03;5033198;28;20037;-75
2022/08/21 03:27:30;;;;;;;9.98;8.45;;;;;;;20.65;56.65;100576.34;5032850;28;20052;-76
2022/08/21 03:29:56;;;;;;;10.82;8.93;;;;;;;20.61;57.09;100570.38;5032742;28;20044;-76
2022/08/21 03:32:23;;;;;;;13.73;8.15;;;;;;;20.52;57.16;100575.88;5032832;28;20046;-77
2022/08/21 03:34:48;;;;;;;9.85;7.88;;;;;;;20.46;57.12;100555.63;4999859;28;20409;-76
2022/08/21 03:37:15;;;;;;;12.75;7.80;;;;;;;20.66;57.10;100572.63;5034362;28;20108;-76
2022/08/21 03:39:41;;;;;;;18.13;7.82;;;;;;;20.83;56.91;100570.84;5032820;28;20049;-77
2022/08/21 03:42:08;;;;;;;10.30;8.05;;;;;;;20.97;56.63;100564.84;5034190;28;20053;-76
2022/08/21 03:44:35;;;;;;;11.55;8.10;;;;;;;20.94;56.58;100576.03;4999911;28;20436;-77
2022/08/21 03:47:01;;;;;;;14.65;8.43;;;;;;;21.03;56.29;100580.53;5016047;28;20056;-78
2022/08/21 03:49:27;;;;;;;10.77;7.90;;;;;;;21.12;56.33;100577.84;5015460;28;20061;-78
2022/08/21 03:51:54;;;;;;;10.52;8.05;;;;;;;21.30;55.86;100584.06;5016356;28;20057;-77
2022/08/21 03:54:21;;;;;;;10.07;8.00;;;;;;;21.34;55.59;100585.47;5042764;28;20037;-77
2022/08/21 03:56:47;;;;;;;11.35;8.13;;;;;;;21.43;55.14;100576.34;4999246;28;20085;-76
2022/08/21 03:59:13;;;;;;;14.48;7.95;;;;;;;21.49;55.26;100574.84;5031556;28;20080;-76
2022/08/21 04:01:39;;;;;;;17.85;7.75;;;;;;;21.49;55.41;100586.56;5033566;28;20056;-78
2022/08/21 04:04:06;;;;;;;11.90;7.28;;;;;;;21.57;55.16;100580.31;5015500;28;20045;-77
2022/08/21 04:06:32;;;;;;;11.52;7.22;;;;;;;21.65;55.35;100579.50;5032660;28;20041;-84
2022/08/21 04:08:58;;;;;;;13.38;7.13;;;;;;;21.65;55.16;100584.94;5032496;28;20049;-79
2022/08/21 04:11:24;;;;;;;16.70;8.15;;;;;;;21.80;55.09;100588.72;5015760;28;20158;-80
2022/08/21 04:13:50;;;;;;;14.60;7.70;;;;;;;21.86;54.87;100593.53;5015357;28;20489;-78
2022/08/21 04:16:16;;;;;;;10.32;7.70;;;;;;;22.00;54.60;100597.44;5031992;28;20099;-78
2022/08/21 04:18:42;;;;;;;15.00;8.35;;;;;;;22.06;54.44;100594.94;5033286;28;20045;-89
2022/08/21 04:21:10;;;;;;;12.20;8.75;;;;;;;22.13;54.49;100597.00;5032049;28;20041;-79
2022/08/21 04:23:37;;;;;;;11.43;8.38;;;;;;;22.12;54.81;100600.75;5033260;28;20045;-80
2022/08/21 04:26:03;;;;;;;11.93;8.80;;;;;;;22.27;54.71;100593.66;5032417;28;20073;-79
2022/08/21 04:28:29;;;;;;;16.15;8.73;;;;;;;22.25;54.36;100592.94;5032637;28;20042;-78
2022/08/21 04:30:56;;;;;;;14.68;8.35;;;;;;;22.12;54.94;100598.88;5015287;28;20523;-78
2022/08/21 04:33:23;;;;;;;11.38;7.95;;;;;;;22.10;55.22;100602.78;5032869;28;20428;-77
2022/08/21 04:35:50;;;;;;;13.88;7.57;;;;;;;22.20;54.54;100589.91;5015102;28;20041;-78
2022/08/21 04:38:16;;;;;;;13.95;8.43;;;;;;;22.35;54.36;100600.97;5015055;28;20057;-78
2022/08/21 04:40:42;;;;;;;11.88;7.85;;;;;;;22.33;54.15;100601.13;5032734;28;20463;-77
2022/08/21 04:43:09;;;;;;;11.32;7.93;;;;;;;22.34;54.54;100597.41;5015026;28;20045;-77
2022/08/21 04:45:42;;;;;;;16.77;8.57;;;;;;;22.28;54.40;100596.19;5031750;28;20037;-78
2022/08/21 04:48:10;;;;;;;12.40;7.45;;;;;;;22.36;54.42;100578.16;5015318;28;20516;-76
2022/08/21 04:50:49;;;;;;;13.05;7.82;;;;;;;22.56;54.11;100587.69;4998902;28;20049;-77
2022/08/21 04:53:33;;;;;;;13.70;8.10;;;;;;;22.74;53.75;100592.97;5031761;28;20049;-77
2022/08/21 04:56:08;;;;;;;12.95;8.48;;;;;;;22.87;53.12;100576.97;5032954;28;20042;-78
2022/08/21 04:58:36;;;;;;;14.32;9.02;;;;;;;23.07;52.91;100574.75;5033209;28;20049;-79
2022/08/21 05:01:04;;;;;;;10.07;8.80;;;;;;;23.24;52.72;100583.72;5030855;28;20045;-78
2022/08/21 05:03:32;;;;;;;16.65;8.55;;;;;;;23.24;52.53;100583.72;5040455;28;20059;-79
2022/08/21 05:05:59;;;;;;;19.10;8.13;;;;;;;23.17;52.64;100577.25;5050980;28;20095;-78
2022/08/21 05:08:27;;;;;;;12.95;8.50;;;;;;;23.32;52.45;100580.09;5034257;28;20043;-79
2022/08/21 05:10:54;;;;;;;10.20;8.30;;;;;;;23.43;52.45;100574.28;5054168;28;20045;-76
2022/08/21 05:13:20;;;;;;;12.02;7.70;;;;;;;23.62;52.01;100575.72;5056519;28;20041;-78
2022/08/21 05:15:46;;;;;;;16.15;8.07;;;;;;;23.99;51.49;100583.25;5057084;28;20068;-80
2022/08/21 05:18:12;;;;;;;15.20;9.35;;;;;;;24.20;50.84;100572.53;5056501;28;20045;-78
2022/08/21 05:20:38;;;;;;;10.73;7.32;;;;;;;24.43;50.45;100572.56;5056624;28;20041;-79
2022/08/21 05:23:12;;;;;;;14.13;8.32;;;;;;;24.73;49.69;100583.59;5022274;28;20051;-82
2022/08/21 05:25:40;;;;;;;10.90;7.60;;;;;;;24.79;48.82;100585.59;5037623;28;20056;-83
2022/08/21 05:28:06;;;;;;;7.88;7.10;;;;;;;24.54;48.70;100581.38;5055042;28;20044;-78
2022/08/21 05:30:32;;;;;;;14.57;6.93;;;;;;;24.57;49.11;100578.28;5054835;28;20048;-78
2022/08/21 05:33:00;;;;;;;15.93;8.95;;;;;;;24.58;48.47;100574.50;5021621;28;20098;-77
2022/08/21 05:35:27;;;;;;;13.13;7.30;;;;;;;24.59;48.80;100571.56;5054800;28;20048;-77
2022/08/21 05:37:53;;;;;;;16.13;7.40;;;;;;;24.64;48.90;100584.72;5055551;28;20045;-77
2022/08/21 05:40:19;;;;;;;12.30;6.82;;;;;;;24.70;48.63;100564.81;5037292;28;20045;-76
2022/08/21 05:42:44;;;;;;;18.80;7.72;;;;;;;24.70;48.36;100575.75;5037799;28;20073;-76
2022/08/21 05:45:11;;;;;;;10.07;7.38;;;;;;;24.82;48.48;100577.00;5054330;28;20044;-75
2022/08/21 05:47:37;;;;;;;11.55;7.07;;;;;;;24.96;47.92;100576.19;5055545;28;20041;-77
2022/08/21 05:50:04;;;;;;;17.42;7.90;;;;;;;24.85;47.88;100573.06;5055746;28;20063;-77
2022/08/21 05:52:30;;;;;;;11.23;7.13;;;;;;;24.92;47.89;100580.34;5055485;28;20131;-77
2022/08/21 05:54:56;;;;;;;23.13;7.78;;;;;;;24.87;48.05;100566.38;5037138;28;20040;-79
2022/08/21 05:57:23;;;;;;;22.83;8.52;;;;;;;24.88;48.17;100570.81;5055834;28;20056;-77
2022/08/21 05:59:50;;;;;;;19.65;7.53;;;;;;;24.93;47.86;100568.34;5055205;28;20048;-77
2022/08/21 06:02:21;;;;;;;15.10;7.65;;;;;;;24.92;48.11;100563.91;5037453;28;20068;-78
2022/08/21 06:04:47;;;;;;;16.70;7.53;;;;;;;25.23;48.12;100564.84;5054029;28;20388;-77
2022/08/21 06:07:14;;;;;;;30.15;10.50;;;;;;;25.55;47.54;100563.59;5020951;28;20040;-76
2022/08/21 06:09:40;;;;;;;19.55;8.40;;;;;;;25.77;46.77;100561.78;5054392;28;20076;-77
2022/08/21 06:12:11;;;;;;;16.52;7.40;;;;;;;25.63;46.70;100550.66;5020646;28;20132;-77
2022/08/21 06:14:40;;;;;;;13.30;7.47;;;;;;;25.78;46.80;100561.59;5036271;28;20041;-75
2022/08/21 06:17:09;;;;;;;15.00;7.35;;;;;;;26.03;46.51;100561.28;5044603;28;20523;-77
2022/08/21 06:19:36;;;;;;;17.13;7.07;;;;;;;26.22;46.21;100559.78;5033377;28;20504;-77
2022/08/21 06:22:03;;;;;;;11.77;7.03;;;;;;;26.39;45.58;100551.09;5032847;28;20484;-78
2022/08/21 06:24:28;;;;;;;14.52;9.32;;;;;;;26.48;45.54;100551.84;5033188;28;20385;-78
2022/08/21 06:26:54;;;;;;;13.65;7.65;;;;;;;26.39;45.65;100548.34;5050230;28;20057;-83
2022/08/21 06:29:21;;;;;;;15.23;7.55;;;;;;;26.28;45.51;100537.06;5050252;28;20046;-77
2022/08/21 06:31:51;;;;;;;20.73;7.50;;;;;;;26.37;45.79;100552.34;5033281;28;20072;-78
2022/08/21 06:34:18;;;;;;;13.75;7.32;;;;;;;26.54;45.57;100544.72;5049990;28;20436;-77
2022/08/21 06:36:44;;;;;;;11.13;6.50;;;;;;;26.68;45.14;100549.28;5033294;28;20143;-75
2022/08/21 06:39:10;;;;;;;12.48;6.85;;;;;;;26.82;44.79;100553.81;5049451;28;20128;-78
2022/08/21 06:41:36;;;;;;;19.25;6.45;;;;;;;26.86;43.71;100544.13;5049558;28;20076;-84
2022/08/21 06:44:02;;;;;;;11.65;6.25;;;;;;;26.88;43.85;100542.03;5033072;28;20045;-76
2022/08/21 06:46:31;;;;;;;12.07;6.60;;;;;;;26.61;44.38;100534.66;5033010;28;20147;-77
2022/08/21 06:48:58;;;;;;;12.63;6.90;;;;;;;26.69;44.98;100547.38;5032980;28;20129;-76
2022/08/21 06:51:27;;;;;;;10.82;6.35;;;;;;;26.70;44.06;100536.19;5032911;28;20041;-76
2022/08/21 06:53:53;;;;;;;9.60;6.35;;;;;;;26.88;43.97;100525.56;5032522;28;20041;-77
2022/08/21 06:56:19;;;;;;;9.82;6.40;;;;;;;27.05;43.71;100544.47;5049420;28;20095;-77
2022/08/21 06:58:46;;;;;;;13.15;6.43;;;;;;;27.17;43.49;100534.66;5050066;28;20044;-77
2022/08/21 07:01:12;;;;;;;14.23;6.45;;;;;;;27.40;43.21;100525.28;5029520;28;20049;-78
2022/08/21 07:03:41;;;;;;;7.22;6.40;;;;;;;27.50;42.36;100521.09;5034387;28;20127;-77
2022/08/21 07:06:09;;;;;;;16.83;6.47;;;;;;;27.59;42.26;100525.34;5000258;28;20045;-78
2022/08/21 07:08:36;;;;;;;9.13;6.45;;;;;;;27.52;42.39;100523.63;4999808;28;20132;-77
2022/08/21 07:11:17;;;;;;;22.33;6.93;;;;;;;27.75;41.94;100528.81;5016249;28;20064;-81
2022/08/21 07:13:43;;;;;;;12.65;6.15;;;;;;;27.99;41.38;100521.94;5033540;28;20053;-83
2022/08/21 07:16:09;;;;;;;10.93;6.65;;;;;;;28.11;41.52;100520.25;5032654;28;20084;-81
2022/08/21 07:18:35;;;;;;;10.73;6.30;;;;;;;28.19;40.57;100513.72;5033387;28;20053;-80
2022/08/21 07:21:03;;;;;;;11.52;6.60;;;;;;;28.39;40.18;100508.25;5032983;28;20620;-79
2022/08/21 07:23:31;;;;;;;;;;;;;;;28.25;39.45;100521.97;5016165;28;20049;-81
2022/08/21 07:26:00;;;;;;;11.05;5.63;;;;;;;27.98;40.43;100506.47;5000507;28;19917;-79
2022/08/21 07:28:26;;;;;;;;;;;;;;;28.05;40.52;100515.59;5049202;28;20042;-76
2022/08/21 07:30:55;;;;;;;9.35;5.78;;;;;;;28.20;40.80;100508.00;5048826;28;19971;-83
2022/08/21 07:33:21;;;;;;;7.00;5.32;;;;;;;28.35;39.97;100506.94;5032424;28;20048;-78
2022/08/21 07:35:47;;;;;;;8.63;6.13;;;;;;;28.66;39.63;100507.22;5033669;28;20497;-79
2022/08/21 07:38:13;;;;;;;12.07;6.05;;;;;;;28.66;39.06;100503.59;5048223;28;20132;-86
2022/08/21 07:40:39;;;;;;;8.10;5.65;;;;;;;28.17;39.69;100494.69;4999277;28;20046;-78
2022/08/21 07:43:05;;;;;;;10.25;6.05;;;;;;;28.18;39.76;100503.78;5033624;28;20136;-79
2022/08/21 07:45:31;;;;;;;15.00;6.05;;;;;;;28.39;39.62;100483.50;5033621;28;20053;-79
2022/08/21 07:47:57;;;;;;;9.68;5.90;;;;;;;28.37;38.85;100494.72;5046148;28;20040;-77
2022/08/21 07:50:25;;;;;;;9.63;5.13;;;;;;;28.64;38.71;100494.72;5032174;28;20512;-77
2022/08/21 07:52:51;;;;;;;10.57;5.40;;;;;;;29.07;37.75;100492.31;5031285;28;20497;-77
2022/08/21 07:55:19;;;;;;;11.25;5.57;;;;;;;29.15;37.67;100500.38;5023666;28;20047;-77
2022/08/21 07:57:46;;;;;;;9.57;5.80;;;;;;;29.31;36.99;100503.72;5031313;28;20098;-76
2022/08/21 08:00:19;;;;;;;17.70;5.25;;;;;;;28.99;37.16;100498.06;4998945;28;20046;-76
2022/08/21 08:02:49;;;;;;;10.52;5.50;;;;;;;28.92;37.57;100502.72;5025194;28;20496;-76
2022/08/21 08:05:18;;;;;;;7.63;5.38;;;;;;;28.86;37.65;100503.59;5016138;28;20037;-76
2022/08/21 08:07:44;;;;;;;14.80;5.20;;;;;;;28.92;37.10;100508.22;5050474;28;20041;-76
2022/08/21 08:10:10;;;;;;;9.85;4.95;;;;;;;29.06;37.28;100503.56;5034423;28;20043;-77
2022/08/21 08:12:39;;;;;;;15.48;5.53;;;;;;;29.05;37.27;100508.22;5034519;28;20094;-76
2022/08/21 08:15:09;;;;;;;8.05;5.10;;;;;;;28.91;37.31;100501.03;5052444;28;20130;-78
2022/08/21 08:17:35;;;;;;;12.20;5.50;;;;;;;28.83;36.89;100495.75;5034534;28;20040;-79
2022/08/21 08:20:02;;;;;;;12.32;5.47;;;;;;;29.10;37.13;100488.31;5034829;28;20060;-78
2022/08/21 08:22:29;;;;;;;6.57;5.22;;;;;;;29.20;36.88;100489.56;5052275;28;20045;-78
2022/08/21 08:24:56;;;;;;;8.20;5.45;;;;;;;29.35;36.65;100474.66;5052312;28;20043;-79
2022/08/21 08:27:22;;;;;;;7.63;5.22;;;;;;;29.58;35.59;100476.94;5034834;28;20385;-83
2022/08/21 08:29:49;;;;;;;8.57;5.25;;;;;;;29.74;35.47;100471.72;5034805;28;20041;-85
2022/08/21 08:32:15;;;;;;;12.60;4.95;;;;;;;30.07;35.06;100467.09;5051485;28;20531;-88
2022/08/21 08:34:41;;;;;;;11.90;5.00;;;;;;;30.22;34.79;100476.75;5051110;28;20131;-83
2022/08/21 08:37:09;;;;;;;14.50;5.40;;;;;;;30.21;34.21;100469.56;5051023;28;20040;-80
2022/08/21 08:39:35;;;;;;;;;;;;;;;30.32;34.04;100475.41;5018691;28;20044;-79
2022/08/21 08:42:16;;;;;;;8.15;4.68;;;;;;;30.67;34.11;100467.44;5034611;28;19920;-81
2022/08/21 08:44:46;;;;;;;6.57;4.70;;;;;;;30.71;33.29;100464.00;5051091;28;20079;-94
2022/08/21 08:47:16;;;;;;;4.97;4.53;;;;;;;30.41;33.13;100455.59;5051692;28;20037;-91
2022/08/21 08:50:03;;;;;;;11.38;5.47;;;;;;;30.28;33.64;100463.13;5034923;28;20183;-89
2022/08/21 08:52:36;;;;;;;23.70;5.47;;;;;;;30.16;33.43;100466.59;5037505;28;20416;-86
2022/08/21 08:55:08;;;;;;;7.70;4.43;;;;;;;30.45;33.67;100473.38;5053530;28;20301;-86
2022/08/21 08:57:36;;;;;;;7.57;4.72;;;;;;;30.57;33.03;100467.09;5035010;28;20037;-91
2022/08/21 09:00:10;;;;;;;7.85;4.75;;;;;;;30.52;33.22;100466.97;5035291;28;20045;-86
2022/08/21 09:02:42;;;;;;;5.28;4.38;;;;;;;30.34;33.16;100459.47;5051723;28;20519;-87
2022/08/21 09:05:21;;;;;;;7.10;5.00;;;;;;;30.56;33.39;100460.75;5052001;28;20041;-88
2022/08/21 09:08:07;;;;;;;14.02;4.63;;;;;;;30.48;33.21;100452.78;5048853;28;20126;-89
2022/08/21 09:11:10;;;;;;;9.60;4.72;;;;;;;30.59;33.11;100454.78;5037765;28;20492;-78
2022/08/21 09:13:53;;;;;;;11.25;5.07;;;;;;;30.69;32.44;100448.72;4998842;28;20037;-78
2022/08/21 09:16:47;;;;;;;9.73;4.90;;;;;;;30.69;33.09;100454.25;5044924;28;20052;-78
2022/08/21 09:19:37;;;;;;;6.70;4.40;;;;;;;31.06;32.81;100444.09;5042187;28;20048;-84
2022/08/21 09:22:09;;;;;;;12.60;4.72;;;;;;;31.20;32.21;100440.13;5052510;28;20415;-78
2022/08/21 09:24:38;;;;;;;19.90;5.30;;;;;;;31.46;31.30;100443.66;5018518;28;20033;-76
2022/08/21 09:27:09;;;;;;;20.98;5.18;;;;;;;31.14;31.58;100440.19;5034093;28;20068;-76
2022/08/21 09:29:40;;;;;;;16.92;5.00;;;;;;;31.11;31.65;100447.03;5034142;28;20063;-78
2022/08/21 09:32:19;;;;;;;13.35;4.80;;;;;;;31.21;31.83;100441.78;5019195;28;20037;-83
2022/08/21 09:35:09;;;;;;;12.68;4.53;;;;;;;30.98;32.17;100441.66;5034225;28;20052;-78
2022/08/21 09:37:54;;;;;;;11.45;4.80;;;;;;;31.32;31.97;100428.31;5034869;28;20080;-77
2022/08/21 09:40:35;;;;;;;26.95;5.80;;;;;;;31.34;31.47;100434.47;5051090;28;20103;-77
2022/08/21 09:43:16;;;;;;;13.95;4.72;;;;;;;31.18;31.64;100425.72;5034508;28;20107;-79
2022/08/21 09:45:44;;;;;;;17.77;4.80;;;;;;;31.17;31.60;100428.69;5052018;28;20052;-76
2022/08/21 09:48:17;;;;;;;15.05;4.57;;;;;;;30.97;31.85;100428.94;5050813;28;20057;-75
2022/08/21 09:50:44;;;;;;;14.63;5.05;;;;;;;31.21;32.04;100407.81;5050694;28;20055;-79
2022/08/21 09:53:24;;;;;;;17.90;5.10;;;;;;;31.45;30.73;100419.84;5034059;28;20138;-78
2022/08/21 09:58:41;;;;;;;25.10;4.80;;;;;;;31.29;31.48;100421.28;5055630;28;20048;-77
2022/08/21 10:01:13;;;;;;;11.52;5.10;;;;;;;31.63;31.14;100394.94;5037574;28;20136;-78
2022/08/21 10:03:39;;;;;;;92.32;8.80;;;;;;;31.73;30.77;100410.09;5037950;28;20098;-76
2022/08/21 10:06:09;;;;;;;10.40;4.75;;;;;;;31.53;31.33;100410.41;5037775;28;20048;-76
2022/08/21 10:08:37;;;;;;;13.88;5.10;;;;;;;31.91;30.85;100391.53;5021136;28;20041;-77
2022/08/21 10:11:14;;;;;;;15.43;4.90;;;;;;;32.13;30.52;100402.88;5037860;28;20041;-85
2022/08/21 10:13:46;;;;;;;10.70;5.00;;;;;;;31.78;31.03;100391.69;5037667;28;20044;-75
2022/08/21 10:16:43;;;;;;;12.48;4.93;;;;;;;32.41;30.72;100398.59;5053841;28;20067;-78
2022/08/21 10:19:31;;;;;;;11.43;4.63;;;;;;;32.49;29.51;100397.38;5053736;28;20099;-81
2022/08/21 10:22:25;;;;;;;11.70;4.93;;;;;;;32.17;30.47;100401.31;5053809;28;20076;-82
2022/08/21 10:25:09;;;;;;;22.88;4.80;;;;;;;32.36;29.97;100392.91;5037451;28;20041;-76
2022/08/21 10:28:00;;;;;;;16.83;5.03;;;;;;;32.45;29.89;100388.72;5021252;28;20044;-77
2022/08/21 10:30:50;;;;;;;10.30;4.60;;;;;;;32.79;29.01;100394.47;5055119;28;20139;-85
2022/08/21 10:33:28;;;;;;;33.10;6.07;;;;;;;32.58;29.65;100402.31;5048133;28;20049;-79
2022/08/21 10:36:03;;;;;;;13.45;5.57;;;;;;;33.05;29.66;100395.88;5046940;28;20053;-78
2022/08/21 10:38:45;;;;;;;15.88;4.78;;;;;;;33.38;28.48;100383.25;5038050;28;20040;-78
2022/08/21 10:41:47;;;;;;;33.63;5.40;;;;;;;33.00;29.31;100396.63;5055145;28;20045;-79
2022/08/21 10:44:26;;;;;;;9.98;4.70;;;;;;;33.06;28.88;100389.25;5053739;28;20053;-76
2022/08/21 10:47:07;;;;;;;9.30;4.38;;;;;;;33.84;28.30;100390.50;5037047;28;20049;-75
2022/08/21 10:50:08;;;;;;;8.52;4.22;;;;;;;34.33;26.73;100380.50;5054373;28;20057;-76
2022/08/21 10:52:55;;;;;;;7.45;4.70;;;;;;;34.31;26.74;100370.78;5053540;28;20049;-76
2022/08/21 10:55:26;;;;;;;11.97;4.57;;;;;;;34.33;26.58;100379.66;5035720;28;20047;-77
2022/08/21 10:57:57;;;;;;;11.88;4.60;;;;;;;34.61;26.75;100375.13;5053302;28;20053;-77
2022/08/21 11:00:29;;;;;;;7.50;4.43;;;;;;;34.13;27.43;100380.19;5053551;28;20102;-76
2022/08/21 11:03:02;;;;;;;8.40;4.75;;;;;;;34.37;27.04;100383.59;5053081;28;20045;-77
2022/08/21 11:05:38;;;;;;;14.95;4.35;;;;;;;33.75;27.13;100384.53;5037038;28;20049;-76
2022/08/21 11:08:04;;;;;;;9.15;3.85;;;;;;;33.53;27.26;100380.78;5052367;28;20068;-76
2022/08/21 11:11:05;;;;;;;5.88;3.85;;;;;;;33.58;26.92;100365.06;5054369;28;20494;-76
2022/08/21 11:14:00;;;;;;;7.85;4.30;;;;;;;33.67;27.72;100375.78;5033177;28;20408;-76
2022/08/21 11:16:53;;;;;;;9.95;4.22;;;;;;;34.00;27.48;100373.06;5012537;28;20048;-77
2022/08/21 11:19:46;;;;;;;7.07;4.57;;;;;;;34.33;27.31;100365.78;5016074;28;20060;-77
2022/08/21 11:22:23;;;;;;;10.63;4.38;;;;;;;34.74;26.73;100374.72;5053120;28;20045;-75
2022/08/21 11:25:00;;;;;;;4.40;3.97;;;;;;;35.04;26.14;100372.38;5053193;28;20557;-79
2022/08/21 11:27:44;;;;;;;8.00;4.15;;;;;;;34.55;26.66;100377.81;5036111;28;20079;-78
2022/08/21 11:30:11;;;;;;;10.18;4.10;;;;;;;34.77;26.53;100375.06;5036445;28;20041;-78
2022/08/21 11:32:54;;;;;;;10.82;4.10;;;;;;;34.38;26.76;100379.75;5054037;28;20131;-78
2022/08/21 11:35:34;;;;;;;7.07;3.83;;;;;;;34.98;25.70;100376.16;5019059;28;20044;-79